createdAt,value
2022-11-15T00:00:31.601Z,100391.34
2022-11-15T00:02:58.035Z,100390.28
2022-11-15T00:05:24.573Z,100397.72
2022-11-15T00:07:55.986Z,100399.19
2022-11-15T00:10:22.768Z,100383.25
2022-11-15T00:12:49.175Z,100373.94
2022-11-15T00:15:15.737Z,100381.97
2022-11-15T00:17:42.131Z,100376.44
2022-11-15T00:20:09.137Z,100379.00
2022-11-15T00:22:35.547Z,100374.31
2022-11-15T00:25:01.938Z,100380.69
2022-11-15T00:27:28.429Z,100376.63
2022-11-15T00:29:54.943Z,100367.03
2022-11-15T00:32:21.426Z,100371.28
2022-11-15T00:34:47.826Z,100368.28
2022-11-15T00:37:14.268Z,100373.78
2022-11-15T00:39:40.710Z,100378.22
2022-11-15T00:42:07.108Z,100373.09
2022-11-15T00:44:33.490Z,100378.41
2022-11-15T00:46:59.894Z,100375.66
2022-11-15T00:49:26.238Z,100374.34
2022-11-15T00:51:52.634Z,100378.78
2022-11-15T00:54:19.062Z,100368.56
2022-11-15T00:56:45.496Z,100363.06
2022-11-15T00:59:11.926Z,100362.84
2022-11-15T01:01:38.381Z,100363.06
2022-11-15T01:04:04.964Z,100357.56
2022-11-15T01:06:31.404Z,100355.91
2022-11-15T01:08:57.817Z,100356.38
2022-11-15T01:11:24.244Z,100356.56
2022-11-15T01:13:50.721Z,100351.28
2022-11-15T01:16:19.493Z,100350.69
2022-11-15T01:18:46.812Z,100361.06
2022-11-15T01:21:19.269Z,100353.28
2022-11-15T01:23:46.022Z,100362.63
2022-11-15T01:26:14.994Z,100355.66
2022-11-15T01:28:42.844Z,100356.97
2022-11-15T01:31:21.003Z,100355.50
2022-11-15T01:33:48.703Z,100356.31
2022-11-15T01:36:18.202Z,100362.94
2022-11-15T01:38:45.012Z,100352.75
2022-11-15T01:41:20.544Z,100342.34
2022-11-15T01:43:50.547Z,100349.28
2022-11-15T01:46:22.754Z,100352.44
2022-11-15T01:48:52.478Z,100350.91
2022-11-15T01:51:20.931Z,100350.00
2022-11-15T01:53:52.285Z,100345.25
2022-11-15T01:56:24.026Z,100339.06
2022-11-15T01:58:52.432Z,100334.75
2022-11-15T02:04:00.766Z,100335.75
2022-11-15T02:06:27.259Z,100330.00
2022-11-15T02:08:55.152Z,100330.38
2022-11-15T02:11:21.619Z,100333.75
2022-11-15T02:13:48.320Z,100319.75
2022-11-15T02:16:33.251Z,100306.34
2022-11-15T02:19:10.448Z,100306.34
2022-11-15T02:21:45.660Z,100309.31
2022-11-15T02:24:30.153Z,100302.25
2022-11-15T02:27:21.466Z,100303.94
2022-11-15T02:30:06.570Z,100293.53
2022-11-15T02:32:49.360Z,100298.56
2022-11-15T02:35:48.664Z,100294.25
2022-11-15T02:38:46.403Z,100293.19
2022-11-15T02:41:29.211Z,100289.13
2022-11-15T02:44:03.355Z,100282.31
2022-11-15T02:47:05.949Z,100268.28
2022-11-15T02:49:34.908Z,100278.00
2022-11-15T02:52:01.621Z,100275.84
2022-11-15T02:54:32.170Z,100283.66
2022-11-15T02:57:42.673Z,100286.41
2022-11-15T03:00:16.301Z,100275.78
2022-11-15T03:02:42.634Z,100280.59
2022-11-15T03:05:24.718Z,100279.03
2022-11-15T03:08:02.267Z,100280.25
2022-11-15T03:11:05.223Z,100286.13
2022-11-15T03:13:59.617Z,100272.69
2022-11-15T03:16:35.233Z,100268.63
2022-11-15T03:19:14.785Z,100272.81
2022-11-15T03:21:42.028Z,100273.22
2022-11-15T03:24:09.620Z,100273.09
2022-11-15T03:26:40.166Z,100284.84
2022-11-15T03:29:16.103Z,100277.16
2022-11-15T03:31:51.132Z,100283.88
2022-11-15T03:34:33.111Z,100281.75
2022-11-15T03:36:59.598Z,100276.22
2022-11-15T03:39:27.181Z,100271.91
2022-11-15T03:41:56.360Z,100272.50
2022-11-15T03:44:37.852Z,100269.25
2022-11-15T03:47:26.117Z,100272.00
2022-11-15T03:49:59.359Z,100267.91
2022-11-15T03:52:25.810Z,100268.53
2022-11-15T03:54:55.765Z,100269.13
2022-11-15T03:57:22.427Z,100265.28
2022-11-15T03:59:48.974Z,100264.44
2022-11-15T04:02:15.410Z,100267.81
2022-11-15T04:04:41.839Z,100259.53
2022-11-15T04:07:08.315Z,100258.22
2022-11-15T04:09:54.875Z,100258.56
2022-11-15T04:12:31.678Z,100251.97
2022-11-15T04:15:10.124Z,100246.53
2022-11-15T04:17:41.488Z,100245.81
2022-11-15T04:20:32.949Z,100249.56
2022-11-15T04:23:19.857Z,100257.56
2022-11-15T04:25:48.419Z,100250.13
2022-11-15T04:28:14.852Z,100257.09
2022-11-15T04:30:41.319Z,100243.28
2022-11-15T04:33:07.763Z,100237.53
2022-11-15T04:35:34.278Z,100244.72
2022-11-15T04:38:01.954Z,100250.25
2022-11-15T04:40:28.386Z,100254.09
2022-11-15T04:42:57.194Z,100245.81
2022-11-15T04:45:28.842Z,100251.34
2022-11-15T04:47:55.260Z,100253.03
2022-11-15T04:50:21.710Z,100262.59
2022-11-15T04:52:53.444Z,100258.78
2022-11-15T04:55:19.880Z,100259.50
2022-11-15T04:57:46.487Z,100254.59
2022-11-15T05:00:15.782Z,100249.56
2022-11-15T05:03:00.603Z,100247.63
2022-11-15T05:05:27.030Z,100249.19
2022-11-15T05:07:53.515Z,100257.34
2022-11-15T05:10:19.903Z,100254.81
2022-11-15T05:12:47.861Z,100250.41
2022-11-15T05:15:14.347Z,100253.41
2022-11-15T05:17:40.730Z,100252.56
2022-11-15T05:20:07.782Z,100258.91
2022-11-15T05:22:34.231Z,100264.69
2022-11-15T05:25:00.685Z,100268.53
2022-11-15T05:27:27.168Z,100269.59
2022-11-15T05:29:53.607Z,100261.69
2022-11-15T05:32:19.975Z,100254.25
2022-11-15T05:34:46.681Z,100249.31
2022-11-15T05:37:14.965Z,100258.19
2022-11-15T05:39:41.427Z,100245.47
2022-11-15T05:42:07.777Z,100247.38
2022-11-15T05:44:36.934Z,100249.66
2022-11-15T05:47:06.447Z,100257.13
2022-11-15T05:49:37.146Z,100249.91
2022-11-15T05:52:08.415Z,100258.78
2022-11-15T05:54:36.806Z,100260.69
2022-11-15T05:57:04.680Z,100259.91
2022-11-15T05:59:33.163Z,100262.16
2022-11-15T06:02:00.170Z,100266.00
2022-11-15T06:04:26.834Z,100263.22
2022-11-15T06:06:53.320Z,100271.53
2022-11-15T06:09:19.801Z,100274.28
2022-11-15T06:11:46.253Z,100269.84
2022-11-15T06:14:12.682Z,100267.91
2022-11-15T06:16:39.215Z,100272.13
2022-11-15T06:19:07.186Z,100275.97
2022-11-15T06:21:33.822Z,100270.09
2022-11-15T06:24:00.203Z,100278.50
2022-11-15T06:26:26.585Z,100281.72
2022-11-15T06:28:53.058Z,100282.47
2022-11-15T06:31:19.475Z,100290.97
2022-11-15T06:33:45.824Z,100289.91
2022-11-15T06:36:17.486Z,100292.41
2022-11-15T06:38:45.832Z,100294.81
2022-11-15T06:41:13.832Z,100297.22
2022-11-15T06:43:41.243Z,100290.00
2022-11-15T06:46:08.123Z,100289.19
2022-11-15T06:48:35.225Z,100290.25
2022-11-15T06:51:04.161Z,100289.41
2022-11-15T06:53:31.463Z,100293.25
2022-11-15T06:56:03.126Z,100296.84
2022-11-15T06:58:29.820Z,100287.97
2022-11-15T07:01:00.825Z,100297.56
2022-11-15T07:03:27.885Z,100294.81
2022-11-15T07:05:55.693Z,100295.06
2022-11-15T07:08:23.522Z,100301.66
2022-11-15T07:10:50.209Z,100299.16
2022-11-15T07:13:16.590Z,100298.03
2022-11-15T07:15:43.046Z,100298.53
2022-11-15T07:18:09.450Z,100298.75
2022-11-15T07:20:36.209Z,100303.47
2022-11-15T07:23:04.361Z,100312.81
2022-11-15T07:25:31.341Z,100312.44
2022-11-15T07:27:59.128Z,100311.81
2022-11-15T07:30:26.686Z,100312.44
2022-11-15T07:32:57.390Z,100317.97
2022-11-15T07:35:24.918Z,100319.16
2022-11-15T07:38:04.260Z,100319.75
2022-11-15T07:40:32.687Z,100315.06
2022-11-15T07:43:02.867Z,100319.50
2022-11-15T07:45:29.763Z,100327.66
2022-11-15T07:47:56.932Z,100321.06
2022-11-15T07:50:25.174Z,100323.22
2022-11-15T07:52:59.338Z,100329.81
2022-11-15T07:55:28.183Z,100329.56
2022-11-15T07:58:01.229Z,100327.16
2022-11-15T08:00:27.709Z,100326.47
2022-11-15T08:02:54.205Z,100325.75
2022-11-15T08:05:20.706Z,100325.28
2022-11-15T08:07:47.105Z,100313.75
2022-11-15T08:10:14.867Z,100310.53
2022-11-15T08:12:41.310Z,100313.91
2022-11-15T08:15:07.856Z,100313.78
2022-11-15T08:17:34.907Z,100315.69
2022-11-15T08:20:01.336Z,100305.63
2022-11-15T08:22:28.063Z,100306.34
2022-11-15T08:24:54.533Z,100294.22
2022-11-15T08:27:21.035Z,100295.44
2022-11-15T08:29:49.345Z,100302.38
2022-11-15T08:32:15.738Z,100300.56
2022-11-15T08:34:42.144Z,100301.19
2022-11-15T08:37:08.532Z,100293.84
2022-11-15T08:39:34.943Z,100291.19
2022-11-15T08:42:01.431Z,100294.53
2022-11-15T08:44:27.848Z,100285.81
2022-11-15T08:46:54.285Z,100285.88
2022-11-15T08:49:20.689Z,100283.47
2022-11-15T08:51:47.105Z,100277.09
2022-11-15T08:54:13.469Z,100270.63
2022-11-15T08:56:41.292Z,100263.53
2022-11-15T08:59:07.756Z,100261.69
2022-11-15T09:01:34.343Z,100260.97
2022-11-15T09:04:00.826Z,100261.69
2022-11-15T09:06:27.246Z,100262.41
2022-11-15T09:08:53.927Z,100260.00
2022-11-15T09:11:22.280Z,100260.34
2022-11-15T09:13:48.688Z,100257.31
2022-11-15T09:16:16.196Z,100264.63
2022-11-15T09:18:42.708Z,100253.66
2022-11-15T09:21:10.171Z,100253.75
2022-11-15T09:23:36.744Z,100258.81
2022-11-15T09:26:05.369Z,100258.38
2022-11-15T09:28:33.930Z,100262.09
2022-11-15T09:31:06.243Z,100266.88
2022-11-15T09:33:33.129Z,100258.41
2022-11-15T09:36:08.380Z,100254.84
2022-11-15T09:38:35.938Z,100254.50
2022-11-15T09:41:14.460Z,100261.38
2022-11-15T09:43:59.501Z,100246.09
2022-11-15T09:46:56.260Z,100248.13
2022-11-15T09:49:23.488Z,100242.19
2022-11-15T09:51:52.382Z,100244.53
2022-11-15T09:57:30.817Z,100229.19
2022-11-15T10:00:38.734Z,100217.56
2022-11-15T10:03:04.018Z,100210.38
2022-11-15T10:05:31.588Z,100203.63
2022-11-15T10:08:12.472Z,100198.28
2022-11-15T10:10:49.348Z,100202.47
2022-11-15T10:13:26.463Z,100193.88
2022-11-15T10:15:55.491Z,100188.66
2022-11-15T10:18:56.582Z,100181.34
2022-11-15T10:21:33.712Z,100182.28
2022-11-15T10:24:00.302Z,100173.75
2022-11-15T10:26:27.376Z,100174.91
2022-11-15T10:28:53.738Z,100172.84
2022-11-15T10:31:28.878Z,100168.94
2022-11-15T10:34:15.139Z,100163.31
2022-11-15T10:36:55.366Z,100153.25
2022-11-15T10:39:21.803Z,100152.50
2022-11-15T10:41:48.337Z,100155.88
2022-11-15T10:44:17.485Z,100149.53
2022-11-15T10:47:01.915Z,100142.09
2022-11-15T10:49:30.480Z,100137.13
2022-11-15T10:52:05.604Z,100146.03
2022-11-15T10:54:36.975Z,100149.75
2022-11-15T10:57:11.632Z,100142.84
2022-11-15T10:59:39.563Z,100148.91
2022-11-15T11:02:32.620Z,100139.16
2022-11-15T11:04:59.945Z,100135.84
2022-11-15T11:07:29.951Z,100137.44
2022-11-15T11:10:49.909Z,100119.66
2022-11-15T11:13:25.391Z,100113.88
2022-11-15T11:16:14.661Z,100107.72
2022-11-15T11:18:44.044Z,100113.50
2022-11-15T11:21:14.432Z,100118.50
2022-11-15T11:24:00.554Z,100105.06
2022-11-15T11:26:43.075Z,100111.63
2022-11-15T11:29:26.373Z,100101.94
2022-11-15T11:31:52.801Z,100109.19
2022-11-15T11:34:38.956Z,100084.97
2022-11-15T11:37:43.736Z,100083.00
2022-11-15T11:40:14.474Z,100075.50
2022-11-15T11:42:48.110Z,100068.88
2022-11-15T11:45:17.590Z,100063.66
2022-11-15T11:48:09.216Z,100066.28
2022-11-15T11:50:38.728Z,100068.50
2022-11-15T11:53:26.292Z,100058.59
2022-11-15T11:56:02.758Z,100062.81
2022-11-15T11:58:36.765Z,100062.72
2022-11-15T12:01:13.243Z,100055.59
2022-11-15T12:03:46.661Z,100053.41
2022-11-15T12:06:25.560Z,100054.78
2022-11-15T12:09:01.080Z,100050.09
2022-11-15T12:12:05.351Z,100045.63
2022-11-15T12:14:44.004Z,100041.75
2022-11-15T12:17:14.454Z,100035.56
2022-11-15T12:19:43.615Z,100030.28
2022-11-15T12:22:14.176Z,100027.19
2022-11-15T12:24:49.865Z,100018.53
2022-11-15T12:27:28.655Z,100006.03
2022-11-15T12:30:03.647Z,100011.59
2022-11-15T12:32:36.265Z,100001.03
2022-11-15T12:35:06.301Z,100003.56
2022-11-15T12:37:45.410Z,99999.69
2022-11-15T12:40:22.520Z,100003.56
2022-11-15T12:43:14.896Z,99987.47
2022-11-15T12:45:43.762Z,99982.25
2022-11-15T12:48:19.220Z,99971.69
2022-11-15T12:51:04.251Z,99968.97
2022-11-15T12:53:35.928Z,99952.88
2022-11-15T12:56:05.310Z,99958.16
2022-11-15T12:58:54.892Z,99947.09
2022-11-15T13:01:34.873Z,99940.72
2022-11-15T13:04:20.252Z,99937.38
2022-11-15T13:06:48.393Z,99938.50
2022-11-15T13:09:30.073Z,99929.31
2022-11-15T13:11:57.845Z,99909.03
2022-11-15T13:14:44.386Z,99910.66
2022-11-15T13:17:19.922Z,99907.91
2022-11-15T13:19:58.115Z,99895.38
2022-11-15T13:22:43.285Z,99901.78
2022-11-15T13:25:17.125Z,99903.44
2022-11-15T13:27:43.620Z,99899.00
2022-11-15T13:30:21.778Z,99889.53
2022-11-15T13:32:49.580Z,99885.09
2022-11-15T13:35:24.886Z,99871.78
2022-11-15T13:37:52.783Z,99870.13
2022-11-15T13:40:31.393Z,99870.94
2022-11-15T13:42:59.207Z,99865.66
2022-11-15T13:45:27.239Z,99868.41
2022-11-15T13:47:58.419Z,99853.97
2022-11-15T13:50:31.888Z,99862.84
2022-11-15T13:53:02.285Z,99850.91
2022-11-15T13:55:30.152Z,99845.94
2022-11-15T13:58:00.451Z,99851.75
2022-11-15T14:00:46.396Z,99838.69
2022-11-15T14:03:23.079Z,99829.78
2022-11-15T14:06:08.554Z,99834.53
2022-11-15T14:08:36.151Z,99814.22
2022-11-15T14:11:21.350Z,99814.50
2022-11-15T14:14:09.175Z,99817.25
2022-11-15T14:16:47.902Z,99812.25
2022-11-15T14:19:35.719Z,99806.13
2022-11-15T14:22:10.283Z,99798.63
2022-11-15T14:24:37.391Z,99801.66
2022-11-15T14:27:26.770Z,99796.38
2022-11-15T14:29:54.121Z,99800.50
2022-11-15T14:32:26.823Z,99788.28
2022-11-15T14:34:59.196Z,99789.97
2022-11-15T14:37:29.625Z,99785.44
2022-11-15T14:39:56.502Z,99785.97
2022-11-15T14:42:24.211Z,99771.56
2022-11-15T14:44:51.060Z,99784.56
2022-11-15T14:47:18.107Z,99780.41
2022-11-15T14:49:44.979Z,99778.44
2022-11-15T14:52:32.184Z,99776.50
2022-11-15T14:55:00.799Z,99779.22
2022-11-15T14:57:27.387Z,99777.00
2022-11-15T14:59:54.046Z,99769.25
2022-11-15T15:02:25.815Z,99771.44
2022-11-15T15:04:52.427Z,99762.28
2022-11-15T15:07:19.299Z,99763.63
2022-11-15T15:09:46.319Z,99755.03
2022-11-15T15:12:18.477Z,99758.88
2022-11-15T15:14:45.678Z,99760.56
2022-11-15T15:17:12.195Z,99748.63
2022-11-15T15:19:38.728Z,99750.28
2022-11-15T15:22:05.523Z,99748.88
2022-11-15T15:24:31.897Z,99741.38
2022-11-15T15:26:58.380Z,99731.94
2022-11-15T15:29:24.769Z,99735.25
2022-11-15T15:31:51.216Z,99731.34
2022-11-15T15:34:17.718Z,99735.19
2022-11-15T15:36:44.171Z,99725.22
2022-11-15T15:39:12.340Z,99718.28
2022-11-15T15:41:38.722Z,99730.16
2022-11-15T15:44:05.176Z,99730.69
2022-11-15T15:46:31.578Z,99728.47
2022-11-15T15:48:58.078Z,99727.94
2022-11-15T15:51:24.506Z,99724.31
2022-11-15T15:53:52.574Z,99720.16
2022-11-15T15:56:18.951Z,99719.88
2022-11-15T15:58:45.427Z,99712.94
2022-11-15T16:01:11.874Z,99710.72
2022-11-15T16:03:38.352Z,99706.28
2022-11-15T16:06:06.035Z,99704.59
2022-11-15T16:08:47.764Z,99704.28
2022-11-15T16:11:18.883Z,99699.88
2022-11-15T16:13:45.371Z,99692.94
2022-11-15T16:16:14.591Z,99697.91
2022-11-15T16:18:41.005Z,99684.06
2022-11-15T16:21:09.356Z,99696.22
2022-11-15T16:23:35.783Z,99691.75
2022-11-15T16:26:04.056Z,99683.44
2022-11-15T16:28:32.904Z,99682.91
2022-11-15T16:31:04.976Z,99678.75
2022-11-15T16:33:32.424Z,99675.69
2022-11-15T16:35:59.251Z,99676.53
2022-11-15T16:38:25.788Z,99678.47
2022-11-15T16:40:52.287Z,99679.59
2022-11-15T16:43:18.761Z,99682.34
2022-11-15T16:45:45.409Z,99670.44
2022-11-15T16:48:26.665Z,99674.84
2022-11-15T16:50:58.211Z,99677.38
2022-11-15T16:53:28.210Z,99675.69
2022-11-15T16:55:58.043Z,99674.59
2022-11-15T16:58:25.051Z,99675.69
2022-11-15T17:00:55.752Z,99674.03
2022-11-15T17:03:24.475Z,99670.69
2022-11-15T17:05:51.778Z,99663.47
2022-11-15T17:08:20.841Z,99652.69
2022-11-15T17:10:47.331Z,99678.69
2022-11-15T17:13:14.102Z,99661.84
2022-11-15T17:15:40.505Z,99658.22
2022-11-15T17:18:06.973Z,99654.06
2022-11-15T17:20:33.633Z,99669.00
2022-11-15T17:23:00.097Z,99656.28
2022-11-15T17:25:26.507Z,99660.72
2022-11-15T17:27:53.307Z,99666.81
2022-11-15T17:30:20.313Z,99659.63
2022-11-15T17:32:49.919Z,99653.25
2022-11-15T17:35:16.488Z,99656.84
2022-11-15T17:37:43.561Z,99648.00
2022-11-15T17:40:10.513Z,99645.78
2022-11-15T17:42:36.944Z,99644.63
2022-11-15T17:45:09.357Z,99643.53
2022-11-15T17:47:36.723Z,99652.94
2022-11-15T17:50:03.247Z,99654.56
2022-11-15T17:52:29.718Z,99647.13
2022-11-15T17:54:56.075Z,99642.66
2022-11-15T17:57:22.455Z,99633.81
2022-11-15T17:59:48.985Z,99633.25
2022-11-15T18:02:15.425Z,99637.13
2022-11-15T18:04:41.939Z,99630.50
2022-11-15T18:07:08.507Z,99631.84
2022-11-15T18:09:34.964Z,99642.34
2022-11-15T18:12:01.534Z,99631.28
2022-11-15T18:14:27.975Z,99623.53
2022-11-15T18:16:54.998Z,99623.53
2022-11-15T18:19:22.559Z,99629.63
2022-11-15T18:21:57.746Z,99630.69
2022-11-15T18:24:29.797Z,99625.72
2022-11-15T18:26:57.719Z,99619.63
2022-11-15T18:29:24.858Z,99616.28
2022-11-15T18:31:55.424Z,99620.16
2022-11-15T18:34:23.933Z,99604.66
2022-11-15T18:36:53.534Z,99605.19
2022-11-15T18:39:20.789Z,99610.44
2022-11-15T18:41:47.946Z,99619.53
2022-11-15T18:44:15.160Z,99603.75
2022-11-15T18:46:42.275Z,99602.34
2022-11-15T18:49:10.594Z,99609.53
2022-11-15T18:51:43.604Z,99599.00
2022-11-15T18:54:11.799Z,99599.56
2022-11-15T18:56:39.002Z,99591.50
2022-11-15T18:59:06.299Z,99596.19
2022-11-15T19:01:43.960Z,99592.03
2022-11-15T19:04:13.153Z,99602.28
2022-11-15T19:06:42.223Z,99598.13
2022-11-15T19:09:10.400Z,99588.97
2022-11-15T19:11:39.513Z,99593.13
2022-11-15T19:14:11.463Z,99585.06
2022-11-15T19:16:44.510Z,99587.28
2022-11-15T19:19:14.558Z,99590.31
2022-11-15T19:21:41.670Z,99595.00
2022-11-15T19:24:08.379Z,99586.69
2022-11-15T19:26:37.715Z,99591.16
2022-11-15T19:29:05.456Z,99583.09
2022-11-15T19:31:32.668Z,99584.78
2022-11-15T19:34:04.583Z,99577.56
2022-11-15T19:36:34.292Z,99572.31
2022-11-15T19:39:08.156Z,99577.84
2022-11-15T19:41:36.074Z,99567.03
2022-11-15T19:44:02.638Z,99570.91
2022-11-15T19:46:29.079Z,99571.44
2022-11-15T19:48:55.463Z,99562.88
2022-11-15T19:51:27.399Z,99568.97
2022-11-15T19:53:56.121Z,99562.34
2022-11-15T19:56:22.896Z,99563.44
2022-11-15T19:58:54.155Z,99546.59
2022-11-15T20:01:24.169Z,99545.75
2022-11-15T20:03:54.476Z,99558.19
2022-11-15T20:06:26.709Z,99541.84
2022-11-15T20:08:53.207Z,99539.09
2022-11-15T20:11:20.305Z,99536.31
2022-11-15T20:13:47.004Z,99537.72
2022-11-15T20:16:19.730Z,99532.19
2022-11-15T20:18:47.386Z,99533.84
2022-11-15T20:21:14.203Z,99534.69
2022-11-15T20:23:41.101Z,99529.16
2022-11-15T20:26:08.602Z,99530.00
2022-11-15T20:28:36.591Z,99529.72
2022-11-15T20:31:03.153Z,99520.59
2022-11-15T20:33:29.613Z,99520.28
2022-11-15T20:35:55.998Z,99526.66
2022-11-15T20:38:23.194Z,99526.66
2022-11-15T20:40:51.965Z,99525.31
2022-11-15T20:43:21.116Z,99524.47
2022-11-15T20:45:50.273Z,99517.56
2022-11-15T20:48:17.649Z,99512.56
2022-11-15T20:50:45.993Z,99510.91
2022-11-15T20:53:15.357Z,99507.28
2022-11-15T20:55:44.209Z,99511.72
2022-11-15T20:58:11.529Z,99499.84
2022-11-15T21:00:38.669Z,99491.53
2022-11-15T21:03:08.203Z,99501.47
2022-11-15T21:05:39.051Z,99501.47
2022-11-15T21:08:06.208Z,99496.22
2022-11-15T21:10:51.493Z,99491.53
2022-11-15T21:13:18.005Z,99493.41
2022-11-15T21:15:44.380Z,99495.94
2022-11-15T21:18:10.885Z,99488.72
2022-11-15T21:20:37.541Z,99478.75
2022-11-15T21:23:03.974Z,99482.59
2022-11-15T21:25:30.502Z,99477.06
2022-11-15T21:27:56.926Z,99476.47
2022-11-15T21:30:23.385Z,99468.19
2022-11-15T21:32:49.909Z,99469.31
2022-11-15T21:35:16.496Z,99467.88
2022-11-15T21:37:42.963Z,99475.34
2022-11-15T21:40:10.247Z,99461.53
2022-11-15T21:42:37.058Z,99465.41
2022-11-15T21:45:03.821Z,99466.50
2022-11-15T21:47:30.256Z,99463.19
2022-11-15T21:49:56.666Z,99462.59
2022-11-15T21:52:23.073Z,99454.59
2022-11-15T21:54:49.428Z,99451.50
2022-11-15T21:57:15.861Z,99447.09
2022-11-15T22:00:02.214Z,99457.31
2022-11-15T22:02:28.625Z,99450.94
2022-11-15T22:04:55.006Z,99447.34
2022-11-15T22:07:21.568Z,99442.91
2022-11-15T22:09:48.009Z,99439.91
2022-11-15T22:12:14.410Z,99432.69
2022-11-15T22:14:40.780Z,99433.53
2022-11-15T22:17:13.315Z,99446.50
2022-11-15T22:19:51.900Z,99436.28
2022-11-15T22:22:18.988Z,99437.63
2022-11-15T22:24:45.363Z,99441.38
2022-11-15T22:27:11.790Z,99434.19
2022-11-15T22:29:38.267Z,99430.88
2022-11-15T22:32:04.766Z,99420.59
2022-11-15T22:34:31.224Z,99427.50
2022-11-15T22:39:45.200Z,99419.75
2022-11-15T22:42:11.625Z,99412.06
2022-11-15T22:44:38.133Z,99408.75
2022-11-15T22:47:04.587Z,99401.56
2022-11-15T22:49:31.023Z,99404.91
2022-11-15T22:51:57.454Z,99399.38
2022-11-15T22:54:23.903Z,99400.47
2022-11-15T22:56:50.306Z,99395.50
2022-11-15T22:59:16.730Z,99397.16
2022-11-15T23:01:43.168Z,99397.16
2022-11-15T23:04:09.602Z,99392.75
2022-11-15T23:06:36.127Z,99395.50
2022-11-15T23:09:02.579Z,99390.25
2022-11-15T23:11:47.351Z,99389.44
2022-11-15T23:14:13.791Z,99386.09
2022-11-15T23:16:40.513Z,99383.34
2022-11-15T23:19:09.986Z,99375.06
2022-11-15T23:21:57.283Z,99380.84
2022-11-15T23:24:24.186Z,99370.59
2022-11-15T23:26:53.602Z,99375.56
2022-11-15T23:29:22.941Z,99365.84
2022-11-15T23:32:08.098Z,99368.34
2022-11-15T23:34:40.128Z,99362.84
2022-11-15T23:37:08.310Z,99355.38
2022-11-15T23:39:34.791Z,99358.16
2022-11-15T23:42:07.503Z,99362.28
2022-11-15T23:44:35.116Z,99351.25
2022-11-15T23:47:01.556Z,99353.16
2022-11-15T23:49:27.955Z,99350.16
2022-11-15T23:51:54.436Z,99354.59
2022-11-15T23:54:20.838Z,99347.66
2022-11-15T23:56:47.271Z,99350.41
2022-11-15T23:59:13.717Z,99345.72
